This is the latest recevied weather packets stored in our database for station/object WX9WTF. If no packets are shown the sender has not sent any weather packets the latest 10 day(s).
| Time | Temp. | Humidity | Pressure | Rain* | Wind** | Luminosity | Snow |
|---|---|---|---|---|---|---|---|
| 1777878598 | 13.89° C | 79% | 1006.8 hPa | 0 mm | - | 0 W/m² | - |
| 1777878295 | 13.33° C | 83% | 1007 hPa | 0 mm | - | 0 W/m² | - |
| 1777877990 | 13.33° C | 86% | 1007 hPa | 0 mm | - | 0 W/m² | - |
| 1777877687 | 13.33° C | 85% | 1007.2 hPa | 0 mm | - | 0 W/m² | - |
| 1777877384 | 13.89° C | 83% | 1007.4 hPa | 0 mm | - | 0 W/m² | - |
| 1777877082 | 13.89° C | 81% | 1007.3 hPa | 0 mm | - | 0 W/m² | - |
| 1777876779 | 13.89° C | 79% | 1007.5 hPa | 0 mm | - | 0 W/m² | - |
| 1777876477 | 14.44° C | 78% | 1007.5 hPa | 0 mm | - | 0 W/m² | - |
| 1777876172 | 14.44° C | 78% | 1007.5 hPa | 0 mm | - | 0 W/m² | - |
| 1777875869 | 14.44° C | 78% | 1007.8 hPa | 0 mm | - | 0 W/m² | - |
| 1777875565 | 15° C | 78% | 1007.6 hPa | 0 mm | - | 0 W/m² | - |
| 1777875262 | 15° C | 77% | 1007.6 hPa | 0 mm | - | 0 W/m² | - |
| 1777874959 | 15° C | 77% | 1008 hPa | 0 mm | - | 0 W/m² | - |
| 1777874655 | 15° C | 78% | 1007.8 hPa | 0 mm | - | 0 W/m² | - |
| 1777874352 | 15° C | 78% | 1008.1 hPa | 0 mm | - | 0 W/m² | - |
| 1777874049 | 15.56° C | 77% | 1008.1 hPa | 0 mm | - | 0 W/m² | - |
| 1777873748 | 15.56° C | 75% | 1008.1 hPa | 0 mm | - | 0 W/m² | - |
| 1777873444 | 15.56° C | 75% | 1008.1 hPa | 0 mm | - | 0 W/m² | - |
| 1777873141 | 16.11° C | 72% | 1007.8 hPa | 0 mm | - | 0 W/m² | - |
| 1777872837 | 16.67° C | 72% | 1008 hPa | 0 mm | - | 0 W/m² | - |
| 1777872535 | 17.22° C | 70% | 1008.2 hPa | 0 mm | - | 0 W/m² | - |
| 1777872233 | 17.22° C | 70% | 1008.2 hPa | 0 mm | - | 0 W/m² | - |
| 1777871929 | 16.11° C | 76% | 1008.1 hPa | 0 mm | - | 0 W/m² | - |
| 1777871626 | 13.89° C | 88% | 1007.6 hPa | 0 mm | - | 0 W/m² | - |
| 1777871322 | 13.33° C | 91% | 1007.5 hPa | 0 mm | - | 0 W/m² | - |
* Rain latest hour (hover to see other rain measurements)
** Current wind speed in m/s (hover to see current wind gust speed)